createdAt,value
2023-04-15T00:00:57.544Z,72.56
2023-04-15T00:03:24.556Z,72.01
2023-04-15T00:05:51.052Z,72.56
2023-04-15T00:08:17.389Z,73.36
2023-04-15T00:10:44.251Z,72.79
2023-04-15T00:13:10.653Z,73.00
2023-04-15T00:15:37.707Z,72.81
2023-04-15T00:18:04.425Z,72.60
2023-04-15T00:20:31.274Z,72.50
2023-04-15T00:22:58.686Z,72.13
2023-04-15T00:25:25.018Z,72.33
2023-04-15T00:27:51.362Z,72.39
2023-04-15T00:30:17.947Z,72.24
2023-04-15T00:32:44.638Z,72.31
2023-04-15T00:35:11.454Z,72.63
2023-04-15T00:37:38.046Z,72.64
2023-04-15T00:40:07.790Z,72.31
2023-04-15T00:42:34.943Z,72.80
2023-04-15T00:45:01.599Z,73.27
2023-04-15T00:47:29.769Z,73.54
2023-04-15T00:49:56.682Z,73.39
2023-04-15T00:52:23.010Z,73.20
2023-04-15T00:54:51.098Z,73.13
2023-04-15T00:57:17.413Z,73.27
2023-04-15T00:59:43.770Z,73.39
2023-04-15T01:02:10.223Z,72.92
2023-04-15T01:04:36.911Z,73.56
2023-04-15T01:07:03.290Z,73.18
2023-04-15T01:09:29.657Z,73.77
2023-04-15T01:11:57.084Z,73.93
2023-04-15T01:14:23.658Z,74.36
2023-04-15T01:16:50.135Z,74.02
2023-04-15T01:19:17.914Z,74.05
2023-04-15T01:21:45.863Z,73.92
2023-04-15T01:24:13.277Z,74.35
2023-04-15T01:26:40.986Z,74.22
2023-04-15T01:29:08.298Z,74.25
2023-04-15T01:31:34.667Z,74.10
2023-04-15T01:34:02.062Z,74.83
2023-04-15T01:36:28.482Z,74.91
2023-04-15T01:38:56.000Z,75.01
2023-04-15T01:41:28.914Z,74.72
2023-04-15T01:43:55.783Z,74.91
2023-04-15T01:46:22.940Z,75.23
2023-04-15T01:48:49.688Z,75.18
2023-04-15T01:51:16.501Z,75.10
2023-04-15T01:53:42.934Z,75.25
2023-04-15T01:56:09.428Z,74.90
2023-04-15T01:58:35.825Z,75.21
2023-04-15T02:01:02.903Z,75.16
2023-04-15T02:03:29.690Z,74.90
2023-04-15T02:05:56.615Z,75.01
2023-04-15T02:08:23.106Z,75.04
2023-04-15T02:10:49.593Z,75.56
2023-04-15T02:13:16.852Z,75.55
2023-04-15T02:15:49.806Z,75.86
2023-04-15T02:18:16.975Z,76.36
2023-04-15T02:20:47.074Z,76.19
2023-04-15T02:23:13.684Z,76.03
2023-04-15T02:25:40.037Z,76.00
2023-04-15T02:28:06.669Z,76.14
2023-04-15T02:30:33.926Z,76.43
2023-04-15T02:33:01.345Z,76.23
2023-04-15T02:35:27.708Z,76.16
2023-04-15T02:37:54.138Z,76.39
2023-04-15T02:40:20.476Z,76.55
2023-04-15T02:42:46.921Z,76.69
2023-04-15T02:45:13.373Z,76.64
2023-04-15T02:47:41.377Z,76.55
2023-04-15T02:50:12.743Z,77.02
2023-04-15T02:52:41.596Z,77.33
2023-04-15T02:55:09.609Z,77.58
2023-04-15T02:57:37.328Z,77.77
2023-04-15T03:00:05.268Z,77.70
2023-04-15T03:02:35.463Z,77.56
2023-04-15T03:05:02.641Z,77.64
2023-04-15T03:07:29.005Z,77.59
2023-04-15T03:09:55.360Z,77.94
2023-04-15T03:12:21.680Z,77.90
2023-04-15T03:14:48.033Z,77.81
2023-04-15T03:17:14.357Z,78.10
2023-04-15T03:19:40.730Z,78.27
2023-04-15T03:22:07.086Z,78.34
2023-04-15T03:24:33.409Z,78.66
2023-04-15T03:26:59.762Z,79.02
2023-04-15T03:29:26.165Z,78.94
2023-04-15T03:31:52.688Z,79.10
2023-04-15T03:34:19.184Z,79.37
2023-04-15T03:36:46.718Z,79.46
2023-04-15T03:39:13.026Z,79.27
2023-04-15T03:41:39.380Z,79.44
2023-04-15T03:44:05.717Z,79.27
2023-04-15T03:46:32.118Z,79.33
2023-04-15T03:48:59.148Z,79.35
2023-04-15T03:51:26.323Z,79.20
2023-04-15T03:53:52.655Z,79.16
2023-04-15T03:56:18.999Z,79.18
2023-04-15T03:58:45.358Z,79.58
2023-04-15T04:01:11.697Z,79.35
2023-04-15T04:03:38.126Z,79.60
2023-04-15T04:06:04.878Z,79.93
2023-04-15T04:08:31.212Z,80.06
2023-04-15T04:10:57.998Z,79.95
2023-04-15T04:13:24.422Z,79.90
2023-04-15T04:15:50.757Z,80.21
2023-04-15T04:18:17.091Z,80.10
2023-04-15T04:20:43.452Z,80.15
2023-04-15T04:23:09.884Z,80.19
2023-04-15T04:25:36.468Z,80.55
2023-04-15T04:28:03.360Z,80.49
2023-04-15T04:30:30.284Z,80.55
2023-04-15T04:32:56.629Z,80.57
2023-04-15T04:35:23.142Z,80.57
2023-04-15T04:37:49.738Z,80.58
2023-04-15T04:40:16.132Z,80.79
2023-04-15T04:42:42.719Z,80.63
2023-04-15T04:45:09.347Z,80.99
2023-04-15T04:47:35.676Z,81.09
2023-04-15T04:50:02.098Z,80.96
2023-04-15T04:52:28.416Z,81.01
2023-04-15T04:54:54.739Z,81.28
2023-04-15T04:57:21.179Z,81.35
2023-04-15T04:59:47.554Z,81.26
2023-04-15T05:02:13.975Z,81.15
2023-04-15T05:04:41.680Z,81.51
2023-04-15T05:07:08.378Z,81.69
2023-04-15T05:09:36.576Z,81.89
2023-04-15T05:12:04.798Z,81.88
2023-04-15T05:14:32.145Z,81.61
2023-04-15T05:16:58.477Z,81.73
2023-04-15T05:19:24.891Z,81.97
2023-04-15T05:21:51.271Z,81.64
2023-04-15T05:24:18.095Z,81.70
2023-04-15T05:26:44.560Z,82.16
2023-04-15T05:29:11.102Z,82.11
2023-04-15T05:31:37.721Z,81.99
2023-04-15T05:34:05.498Z,82.07
2023-04-15T05:36:32.000Z,81.94
2023-04-15T05:38:58.629Z,81.81
2023-04-15T05:41:25.246Z,82.09
2023-04-15T05:43:51.857Z,82.31
2023-04-15T05:46:18.328Z,82.23
2023-04-15T05:48:44.704Z,82.51
2023-04-15T05:51:11.202Z,82.77
2023-04-15T05:53:37.544Z,82.93
2023-04-15T05:56:04.248Z,82.94
2023-04-15T05:58:31.150Z,82.72
2023-04-15T06:00:57.557Z,82.96
2023-04-15T06:03:24.236Z,82.90
2023-04-15T06:05:50.787Z,82.90
2023-04-15T06:08:17.115Z,82.73
2023-04-15T06:10:43.533Z,82.52
2023-04-15T06:13:09.869Z,82.86
2023-04-15T06:15:36.710Z,82.52
2023-04-15T06:18:03.598Z,82.01
2023-04-15T06:20:30.053Z,81.80
2023-04-15T06:22:57.234Z,81.75
2023-04-15T06:25:23.962Z,81.01
2023-04-15T06:27:50.318Z,80.50
2023-04-15T06:30:17.076Z,81.08
2023-04-15T06:32:43.702Z,80.30
2023-04-15T06:35:10.361Z,78.44
2023-04-15T06:37:36.673Z,77.22
2023-04-15T06:40:05.217Z,75.89
2023-04-15T06:42:31.792Z,74.56
2023-04-15T06:44:58.115Z,73.32
2023-04-15T06:47:24.467Z,71.27
2023-04-15T06:49:50.852Z,70.83
2023-04-15T06:52:17.502Z,70.43
2023-04-15T06:54:43.840Z,66.01
2023-04-15T06:57:10.397Z,58.76
2023-04-15T06:59:36.733Z,53.34
2023-04-15T07:02:03.118Z,47.13
2023-04-15T07:04:29.484Z,44.62
2023-04-15T07:06:56.770Z,41.16
2023-04-15T07:09:23.731Z,39.43
2023-04-15T07:11:50.308Z,38.15
2023-04-15T07:14:17.119Z,37.62
2023-04-15T07:16:43.538Z,39.42
2023-04-15T07:19:09.864Z,41.14
2023-04-15T07:21:36.171Z,43.98
2023-04-15T07:24:02.496Z,46.19
2023-04-15T07:26:28.833Z,46.52
2023-04-15T07:28:55.487Z,47.71
2023-04-15T07:31:22.132Z,46.62
2023-04-15T07:33:48.479Z,47.60
2023-04-15T07:36:15.322Z,47.84
2023-04-15T07:38:41.736Z,46.93
2023-04-15T07:41:08.064Z,47.69
2023-04-15T07:43:34.410Z,47.68
2023-04-15T07:46:00.783Z,48.97
2023-04-15T07:48:27.129Z,49.28
2023-04-15T07:50:53.742Z,47.74
2023-04-15T07:53:20.569Z,46.99
2023-04-15T07:55:46.882Z,47.80
2023-04-15T07:58:13.199Z,47.34
2023-04-15T08:00:40.239Z,47.74
2023-04-15T08:03:06.824Z,46.90
2023-04-15T08:05:33.299Z,48.16
2023-04-15T08:07:59.725Z,49.32
2023-04-15T08:10:26.151Z,47.79
2023-04-15T08:12:54.239Z,47.91
2023-04-15T08:15:21.467Z,48.54
2023-04-15T08:17:47.834Z,49.91
2023-04-15T08:20:14.385Z,50.04
2023-04-15T08:22:41.481Z,49.47
2023-04-15T08:25:08.936Z,49.35
2023-04-15T08:27:35.258Z,49.23
2023-04-15T08:30:04.212Z,49.41
2023-04-15T08:32:31.340Z,49.85
2023-04-15T08:34:57.721Z,50.16
2023-04-15T08:37:24.215Z,49.11
2023-04-15T08:39:50.559Z,49.09
2023-04-15T08:42:19.754Z,50.50
2023-04-15T08:44:47.689Z,51.84
2023-04-15T08:47:17.542Z,51.74
2023-04-15T08:49:44.135Z,51.49
2023-04-15T08:52:10.758Z,52.74
2023-04-15T08:54:38.676Z,53.07
2023-04-15T08:57:05.220Z,52.31
2023-04-15T08:59:32.461Z,53.19
2023-04-15T09:01:59.180Z,54.34
2023-04-15T09:04:25.849Z,53.93
2023-04-15T09:06:52.335Z,54.70
2023-04-15T09:09:18.741Z,55.04
2023-04-15T09:11:45.358Z,56.20
2023-04-15T09:14:13.435Z,54.64
2023-04-15T09:16:59.136Z,54.32
2023-04-15T09:19:26.176Z,54.44
2023-04-15T09:21:58.691Z,55.24
2023-04-15T09:24:33.632Z,55.61
2023-04-15T09:27:00.462Z,55.19
2023-04-15T09:29:26.880Z,55.17
2023-04-15T09:31:53.260Z,55.31
2023-04-15T09:34:20.228Z,55.99
2023-04-15T09:36:46.816Z,55.91
2023-04-15T09:39:14.285Z,55.55
2023-04-15T09:41:40.853Z,55.43
2023-04-15T09:44:07.352Z,55.13
2023-04-15T09:46:44.176Z,56.14
2023-04-15T09:49:11.767Z,57.00
2023-04-15T09:51:38.804Z,56.55
2023-04-15T09:54:05.634Z,55.91
2023-04-15T09:56:37.756Z,55.96
2023-04-15T09:59:10.057Z,56.77
2023-04-15T10:01:36.655Z,56.00
2023-04-15T10:04:04.762Z,56.65
2023-04-15T10:06:31.457Z,54.85
2023-04-15T10:09:01.808Z,56.33
2023-04-15T10:11:30.439Z,55.83
2023-04-15T10:13:58.348Z,55.87
2023-04-15T10:16:28.648Z,55.27
2023-04-15T10:18:57.412Z,54.95
2023-04-15T10:21:24.644Z,54.09
2023-04-15T10:23:51.401Z,53.04
2023-04-15T10:26:17.810Z,53.05
2023-04-15T10:28:48.270Z,53.99
2023-04-15T10:31:15.393Z,54.42
2023-04-15T10:33:44.126Z,55.32
2023-04-15T10:36:11.608Z,54.85
2023-04-15T10:38:41.634Z,55.80
2023-04-15T10:41:20.997Z,53.88
2023-04-15T10:44:01.097Z,53.85
2023-04-15T10:46:45.025Z,52.87
2023-04-15T10:49:14.188Z,53.35
2023-04-15T10:51:51.584Z,55.05
2023-04-15T10:54:26.997Z,54.68
2023-04-15T10:57:06.438Z,52.99
2023-04-15T10:59:38.297Z,54.69
2023-04-15T11:02:06.824Z,53.39
2023-04-15T11:04:58.032Z,53.92
2023-04-15T11:07:49.169Z,53.44
2023-04-15T11:10:18.630Z,52.49
2023-04-15T11:12:45.933Z,51.17
2023-04-15T11:15:35.083Z,53.81
2023-04-15T11:18:24.814Z,53.04
2023-04-15T11:20:57.393Z,52.19
2023-04-15T11:23:35.388Z,52.87
2023-04-15T11:26:06.705Z,52.33
2023-04-15T11:28:33.314Z,51.73
2023-04-15T11:31:06.457Z,52.21
2023-04-15T11:33:33.048Z,52.34
2023-04-15T11:35:59.419Z,51.21
2023-04-15T11:38:25.813Z,51.59
2023-04-15T11:40:52.543Z,52.67
2023-04-15T11:43:23.175Z,52.97
2023-04-15T11:46:02.547Z,51.15
2023-04-15T11:48:34.295Z,50.84
2023-04-15T11:51:03.118Z,51.30
2023-04-15T11:53:38.122Z,50.91
2023-04-15T11:56:05.324Z,49.56
2023-04-15T11:58:34.178Z,50.75
2023-04-15T12:01:01.494Z,50.69
2023-04-15T12:03:30.122Z,52.51
2023-04-15T12:06:34.956Z,51.91
2023-04-15T12:09:07.593Z,51.62
2023-04-15T12:11:36.835Z,52.11
2023-04-15T12:14:08.767Z,52.31
2023-04-15T12:16:48.142Z,50.86
2023-04-15T12:19:35.210Z,52.05
2023-04-15T12:22:13.130Z,52.27
2023-04-15T12:24:40.658Z,51.80
2023-04-15T12:27:08.633Z,52.37
2023-04-15T12:29:36.603Z,52.93
2023-04-15T12:32:11.748Z,52.53
2023-04-15T12:34:40.808Z,53.03
2023-04-15T12:37:13.070Z,54.14
2023-04-15T12:39:42.484Z,53.85
2023-04-15T12:42:09.793Z,53.63
2023-04-15T12:44:37.665Z,54.57
2023-04-15T12:47:04.809Z,55.65
2023-04-15T12:49:32.633Z,55.31
2023-04-15T12:52:00.890Z,53.84
2023-04-15T12:54:28.085Z,54.48
2023-04-15T12:56:55.337Z,54.04
2023-04-15T12:59:23.719Z,53.74
2023-04-15T13:01:51.959Z,55.07
2023-04-15T13:04:19.724Z,54.96
2023-04-15T13:06:46.297Z,55.66
2023-04-15T13:09:14.493Z,55.00
2023-04-15T13:11:41.218Z,54.71
2023-04-15T13:14:09.237Z,56.30
2023-04-15T13:16:36.118Z,56.86
2023-04-15T13:19:03.799Z,57.59
2023-04-15T13:21:32.127Z,57.97
2023-04-15T13:23:58.502Z,58.40
2023-04-15T13:26:24.933Z,58.72
2023-04-15T13:28:51.292Z,60.30
2023-04-15T13:31:17.675Z,60.05
2023-04-15T13:33:44.030Z,59.93
2023-04-15T13:36:10.371Z,60.28
2023-04-15T13:38:36.704Z,59.45
2023-04-15T13:41:03.737Z,60.21
2023-04-15T13:43:30.543Z,60.74
2023-04-15T13:45:56.891Z,59.81
2023-04-15T13:48:33.504Z,61.16
2023-04-15T13:50:59.820Z,61.33
2023-04-15T13:53:33.769Z,62.00
2023-04-15T13:56:04.505Z,61.04
2023-04-15T13:58:30.838Z,61.05
2023-04-15T14:00:58.049Z,60.83
2023-04-15T14:03:24.747Z,61.35
2023-04-15T14:05:55.807Z,62.19
2023-04-15T14:08:23.137Z,61.12
2023-04-15T14:10:49.608Z,60.98
2023-04-15T14:13:16.186Z,60.19
2023-04-15T14:15:42.520Z,61.74
2023-04-15T14:18:08.860Z,61.58
2023-04-15T14:20:35.378Z,61.74
2023-04-15T14:23:01.689Z,62.35
2023-04-15T14:25:33.633Z,63.19
2023-04-15T14:28:00.643Z,64.31
2023-04-15T14:30:27.063Z,64.68
2023-04-15T14:32:53.635Z,64.78
2023-04-15T14:35:20.162Z,64.54
2023-04-15T14:37:46.484Z,65.10
2023-04-15T14:40:13.987Z,65.15
2023-04-15T14:42:40.635Z,65.84
2023-04-15T14:45:07.544Z,66.25
2023-04-15T14:47:33.962Z,66.04
2023-04-15T14:50:00.583Z,64.89
2023-04-15T14:52:26.893Z,64.94
2023-04-15T14:54:53.251Z,65.19
2023-04-15T14:57:19.593Z,64.71
2023-04-15T14:59:45.974Z,64.56
2023-04-15T15:02:17.358Z,65.28
2023-04-15T15:04:52.905Z,66.01
2023-04-15T15:07:19.380Z,65.71
2023-04-15T15:09:46.057Z,65.63
2023-04-15T15:12:12.390Z,66.66
2023-04-15T15:14:38.740Z,65.09
2023-04-15T15:17:05.198Z,64.64
2023-04-15T15:19:31.549Z,65.72
2023-04-15T15:21:57.896Z,65.62
2023-04-15T15:24:24.275Z,66.16
2023-04-15T15:26:50.654Z,66.22
2023-04-15T15:29:17.096Z,66.50
2023-04-15T15:31:43.517Z,66.56
2023-04-15T15:34:09.866Z,66.45
2023-04-15T15:36:36.295Z,67.26
2023-04-15T15:39:04.962Z,67.11
2023-04-15T15:41:33.342Z,67.51
2023-04-15T15:43:59.925Z,68.28
2023-04-15T15:46:26.801Z,68.84
2023-04-15T15:48:53.332Z,69.07
2023-04-15T15:51:20.738Z,68.83
2023-04-15T15:53:47.070Z,69.62
2023-04-15T15:56:13.399Z,69.66
2023-04-15T15:58:39.814Z,69.60
2023-04-15T16:01:07.297Z,69.59
2023-04-15T16:03:33.839Z,69.84
2023-04-15T16:06:00.722Z,69.49
2023-04-15T16:08:27.136Z,69.57
2023-04-15T16:10:53.744Z,69.95
2023-04-15T16:13:20.169Z,70.48
2023-04-15T16:15:46.584Z,70.71
2023-04-15T16:18:12.985Z,70.72
2023-04-15T16:20:39.422Z,71.00
2023-04-15T16:23:14.123Z,71.39
2023-04-15T16:25:42.552Z,71.55
2023-04-15T16:28:18.944Z,71.68
2023-04-15T16:30:51.803Z,71.33
2023-04-15T16:33:18.129Z,71.30
2023-04-15T16:35:44.504Z,71.25
2023-04-15T16:38:10.857Z,71.64
2023-04-15T16:40:37.451Z,71.69
2023-04-15T16:43:07.191Z,72.16
2023-04-15T16:45:33.725Z,72.07
2023-04-15T16:48:00.350Z,72.18
2023-04-15T16:50:27.121Z,72.46
2023-04-15T16:52:53.469Z,72.34
2023-04-15T16:55:20.018Z,72.50
2023-04-15T16:58:00.791Z,72.99
2023-04-15T17:00:31.025Z,72.93
2023-04-15T17:02:57.894Z,73.18
2023-04-15T17:05:24.451Z,73.16
2023-04-15T17:07:50.945Z,73.20
2023-04-15T17:10:17.388Z,72.90
2023-04-15T17:12:43.794Z,73.10
2023-04-15T17:15:10.545Z,73.47
2023-04-15T17:17:36.986Z,73.19
2023-04-15T17:20:04.129Z,73.05
2023-04-15T17:22:30.701Z,73.40
2023-04-15T17:24:57.155Z,73.21
2023-04-15T17:27:24.675Z,73.48
2023-04-15T17:29:51.029Z,73.50
2023-04-15T17:32:17.614Z,73.74
2023-04-15T17:34:49.756Z,73.63
2023-04-15T17:37:17.280Z,73.74
2023-04-15T17:39:43.784Z,74.35
2023-04-15T17:42:11.163Z,74.48
2023-04-15T17:44:37.528Z,74.62
2023-04-15T17:47:03.956Z,74.39
2023-04-15T17:49:31.065Z,74.23
2023-04-15T17:51:57.597Z,74.20
2023-04-15T17:54:23.996Z,74.13
2023-04-15T17:56:50.591Z,74.46
2023-04-15T17:59:17.434Z,74.73
2023-04-15T18:01:45.359Z,74.84
2023-04-15T18:04:12.361Z,75.09
2023-04-15T18:06:39.002Z,75.08
2023-04-15T18:09:05.732Z,74.95
2023-04-15T18:11:33.319Z,75.42
2023-04-15T18:14:00.098Z,75.37
2023-04-15T18:16:26.602Z,75.25
2023-04-15T18:18:54.081Z,75.16
2023-04-15T18:21:20.624Z,74.89
2023-04-15T18:23:46.961Z,74.75
2023-04-15T18:26:13.537Z,74.50
2023-04-15T18:28:39.974Z,74.66
2023-04-15T18:31:06.432Z,74.67
2023-04-15T18:33:32.863Z,74.59
2023-04-15T18:35:59.473Z,74.83
2023-04-15T18:38:25.970Z,74.90
2023-04-15T18:40:52.271Z,75.06
2023-04-15T18:43:18.794Z,75.42
2023-04-15T18:45:45.293Z,75.67
2023-04-15T18:48:12.289Z,75.67
2023-04-15T18:50:38.649Z,76.02
2023-04-15T18:53:04.978Z,76.63
2023-04-15T18:55:31.358Z,77.15
2023-04-15T18:58:08.402Z,76.99
2023-04-15T19:00:38.867Z,77.51
2023-04-15T19:03:06.113Z,77.70
2023-04-15T19:05:32.749Z,78.16
2023-04-15T19:07:59.682Z,78.41
2023-04-15T19:10:27.969Z,78.47
2023-04-15T19:12:55.538Z,78.89
2023-04-15T19:15:21.916Z,78.95
2023-04-15T19:17:48.322Z,79.02
2023-04-15T19:20:14.761Z,79.42
2023-04-15T19:22:42.897Z,79.85
2023-04-15T19:25:09.679Z,79.99
2023-04-15T19:27:38.018Z,79.28
2023-04-15T19:30:08.078Z,80.10
2023-04-15T19:32:35.390Z,80.25
2023-04-15T19:35:01.912Z,80.59
2023-04-15T19:37:28.321Z,80.81
2023-04-15T19:39:56.048Z,80.72
2023-04-15T19:42:22.442Z,81.34
2023-04-15T19:44:48.762Z,81.14
2023-04-15T19:47:15.408Z,81.22
2023-04-15T19:49:41.873Z,81.52
2023-04-15T19:52:08.266Z,81.38
2023-04-15T19:54:34.907Z,81.50
2023-04-15T19:57:01.997Z,81.78
2023-04-15T19:59:28.373Z,82.08
2023-04-15T20:01:54.842Z,81.91
2023-04-15T20:04:21.406Z,82.09
2023-04-15T20:06:48.074Z,81.82
2023-04-15T20:09:14.418Z,81.83
2023-04-15T20:12:46.092Z,81.88
2023-04-15T20:14:27.323Z,82.04
2023-04-15T20:16:53.635Z,82.15
2023-04-15T20:19:19.951Z,81.87
2023-04-15T20:21:46.401Z,81.85
2023-04-15T20:24:12.737Z,81.68
2023-04-15T20:26:39.064Z,81.60
2023-04-15T20:29:05.656Z,81.98
2023-04-15T20:31:32.379Z,81.93
2023-04-15T20:33:58.722Z,81.71
2023-04-15T20:36:25.109Z,81.85
2023-04-15T20:38:51.444Z,82.21
2023-04-15T20:41:17.765Z,82.08
2023-04-15T20:43:44.123Z,82.38
2023-04-15T20:46:20.422Z,82.48
2023-04-15T20:48:47.709Z,82.56
2023-04-15T20:51:15.035Z,82.42
2023-04-15T20:53:41.982Z,82.87
2023-04-15T20:56:08.325Z,82.82
2023-04-15T20:58:34.652Z,82.76
2023-04-15T21:01:01.980Z,82.96
2023-04-15T21:03:28.608Z,82.87
2023-04-15T21:05:55.257Z,83.00
2023-04-15T21:08:28.966Z,82.89
2023-04-15T21:10:56.420Z,82.94
2023-04-15T21:13:23.466Z,83.30
2023-04-15T21:15:54.208Z,83.22
2023-04-15T21:18:21.840Z,83.40
2023-04-15T21:20:59.466Z,83.35
2023-04-15T21:23:26.181Z,83.71
2023-04-15T21:25:52.517Z,83.65
2023-04-15T21:28:18.880Z,84.23
2023-04-15T21:30:45.773Z,84.25
2023-04-15T21:33:12.082Z,84.29
2023-04-15T21:35:38.461Z,84.63
2023-04-15T21:38:04.827Z,84.80
2023-04-15T21:40:31.179Z,85.23
2023-04-15T21:42:57.503Z,85.38
2023-04-15T21:45:23.820Z,85.29
2023-04-15T21:48:06.011Z,85.37
2023-04-15T21:50:36.528Z,85.24
2023-04-15T21:53:04.079Z,85.59
2023-04-15T21:55:30.441Z,85.54
2023-04-15T21:57:56.763Z,85.72
2023-04-15T22:00:24.107Z,85.54
2023-04-15T22:02:51.535Z,85.89
2023-04-15T22:05:18.010Z,85.77
2023-04-15T22:07:44.609Z,86.24
2023-04-15T22:10:11.286Z,86.38
2023-04-15T22:12:40.832Z,86.60
2023-04-15T22:15:07.818Z,86.51
2023-04-15T22:17:34.200Z,86.70
2023-04-15T22:20:00.638Z,86.68
2023-04-15T22:22:42.578Z,86.88
2023-04-15T22:25:11.004Z,86.61
2023-04-15T22:27:37.314Z,86.77
2023-04-15T22:30:04.890Z,86.77
2023-04-15T22:32:31.297Z,87.24
2023-04-15T22:34:57.630Z,87.54
2023-04-15T22:37:24.129Z,87.44
2023-04-15T22:39:50.843Z,87.79
2023-04-15T22:42:17.142Z,88.31
2023-04-15T22:44:43.448Z,87.79
2023-04-15T22:47:09.759Z,88.22
2023-04-15T22:49:36.452Z,88.21
2023-04-15T22:52:02.792Z,88.33
2023-04-15T22:54:29.133Z,88.69
2023-04-15T22:56:56.311Z,88.57
2023-04-15T22:59:22.649Z,88.99
2023-04-15T23:01:49.255Z,88.76
2023-04-15T23:04:23.572Z,88.72
2023-04-15T23:06:52.365Z,88.57
2023-04-15T23:09:18.723Z,88.88
2023-04-15T23:11:45.034Z,88.84
2023-04-15T23:14:11.362Z,88.93
2023-04-15T23:16:37.827Z,88.83
2023-04-15T23:19:04.250Z,88.93
2023-04-15T23:21:31.159Z,89.19
2023-04-15T23:23:57.492Z,89.28
2023-04-15T23:26:23.861Z,89.25
2023-04-15T23:28:50.238Z,89.20
2023-04-15T23:33:57.289Z,89.47
2023-04-15T23:36:23.613Z,89.56
2023-04-15T23:38:49.926Z,89.70
2023-04-15T23:41:16.296Z,89.84
2023-04-15T23:43:42.602Z,90.25
2023-04-15T23:46:08.928Z,90.84
2023-04-15T23:48:35.344Z,90.82
2023-04-15T23:51:01.693Z,90.67
2023-04-15T23:53:29.669Z,90.59
2023-04-15T23:55:56.627Z,90.73
2023-04-15T23:58:23.378Z,90.77
